Time;durP1;ratioP1;P1;durP2;ratioP2;P2;SDS_P1;SDS_P2;PMS_P1;PMS_P2;Temp;Humidity;BMP_temperature;BMP_pressure;BME280_temperature;BME280_humidity;BME280_pressure;Samples;Min_cycle;Max_cycle;Signal;HPM_P1;HPM_P2
2021/11/08 00:01:16;;;;;;;31.68;25.10;;;;;;;12.78;81.16;94561.38;821279;71;32836;-87
2021/11/08 00:16:20;;;;;;;29.30;20.35;;;;;;;12.63;81.17;94565.92;827839;71;30025;-84
2021/11/08 00:31:12;;;;;;;27.25;20.45;;;;;;;12.57;81.59;94560.54;821381;71;30433;-83
2021/11/08 00:46:12;;;;;;;29.92;21.77;;;;;;;12.53;81.40;94545.10;820807;71;32101;-81
2021/11/08 01:01:10;;;;;;;28.02;21.00;;;;;;;12.46;81.12;94517.64;826283;71;29760;-84
2021/11/08 01:16:08;;;;;;;30.02;20.40;;;;;;;12.33;80.79;94515.30;819775;71;29753;-82
2021/11/08 01:31:11;;;;;;;31.60;21.57;;;;;;;12.22;81.36;94506.30;787609;74;30518;-84
2021/11/08 01:46:11;;;;;;;32.63;22.30;;;;;;;12.15;81.71;94486.22;819614;71;30817;-83
2021/11/08 02:01:09;;;;;;;32.75;22.45;;;;;;;12.07;81.78;94460.63;821939;70;29724;-80
2021/11/08 02:16:09;;;;;;;28.95;20.20;;;;;;;11.99;82.25;94467.91;824309;71;29753;-84
2021/11/08 02:31:09;;;;;;;37.67;23.75;;;;;;;11.91;82.45;94454.92;820422;71;30363;-83
2021/11/08 02:46:16;;;;;;;34.45;22.70;;;;;;;11.94;82.31;94462.74;820657;71;32876;-84
2021/11/08 03:16:33;;;;;;;38.83;23.45;;;;;;;11.60;82.54;94420.06;820478;71;30231;-84
2021/11/08 03:31:16;;;;;;;37.67;26.30;;;;;;;11.62;82.91;94435.00;823115;71;32780;-83
2021/11/08 03:46:15;;;;;;;37.73;26.20;;;;;;;11.54;83.01;94422.56;828648;71;32873;-83
2021/11/08 04:01:17;;;;;;;37.42;27.10;;;;;;;11.55;82.70;94412.28;789450;74;33508;-89
2021/11/08 04:16:14;;;;;;;33.60;24.05;;;;;;;11.52;82.41;94415.51;821487;71;31345;-88
2021/11/08 04:31:43;;;;;;;45.38;28.87;;;;;;;11.44;83.05;94430.66;804123;73;32874;-86
2021/11/08 05:31:14;;;;;;;32.53;22.70;;;;;;;11.67;83.09;94418.34;820591;71;33378;-76
2021/11/08 05:46:13;;;;;;;35.55;26.62;;;;;;;12.12;83.14;94428.93;818505;71;32585;-78
2021/11/08 07:01:14;;;;;;;46.83;32.85;;;;;;;15.91;72.30;94447.18;818716;71;33411;-77
2021/11/08 07:16:17;;;;;;;37.28;29.37;;;;;;;17.36;68.75;94434.50;825136;71;32681;-77
2021/11/08 07:31:14;;;;;;;47.15;34.25;;;;;;;18.29;63.96;94426.38;819787;71;33361;-80
2021/11/08 07:46:08;;;;;;;44.65;33.15;;;;;;;18.88;61.41;94415.63;820915;71;29278;-78
2021/11/08 08:01:14;;;;;;;40.60;32.05;;;;;;;19.87;59.42;94424.39;818249;71;32561;-77
2021/11/08 08:16:17;;;;;;;36.63;28.35;;;;;;;20.13;57.08;94395.81;833584;71;31827;-77
2021/11/08 08:31:37;;;;;;;36.08;28.57;;;;;;;19.89;57.81;94395.52;789134;75;31965;-80
2021/11/08 09:16:13;;;;;;;37.00;28.17;;;;;;;23.89;49.49;94374.95;826234;70;28690;-81
2021/11/08 09:31:50;;;;;;;33.10;27.23;;;;;;;24.92;46.12;94368.37;804253;73;31844;-84
2021/11/08 09:46:42;;;;;;;30.67;25.23;;;;;;;24.66;43.64;94356.08;781820;75;32046;-85
2021/11/08 10:01:31;;;;;;;31.57;24.87;;;;;;;24.29;44.85;94337.55;819850;71;31994;-84
2021/11/08 10:31:15;;;;;;;33.37;26.27;;;;;;;23.12;47.45;94317.85;822895;71;28824;-89
2021/11/08 10:46:35;;;;;;;42.13;33.50;;;;;;;22.69;48.76;94304.88;831902;71;31836;-80
2021/11/08 11:01:10;;;;;;;46.37;36.27;;;;;;;23.36;48.17;94306.53;834538;71;28628;-77
2021/11/08 12:46:38;;;;;;;27.00;17.70;;;;;;;24.80;40.49;94298.97;787644;71;33345;-89
2021/11/08 13:01:25;;;;;;;21.73;16.03;;;;;;;24.70;40.91;94286.31;836276;70;32787;-87
2021/11/08 15:16:59;;;;;;;22.30;14.37;;;;;;;19.92;48.81;94356.19;776675;71;33172;-82
2021/11/08 16:01:09;;;;;;;21.90;15.72;;;;;;;18.27;53.72;94405.48;836134;69;30812;-85
2021/11/08 16:16:59;;;;;;;20.57;15.58;;;;;;;17.97;54.59;94432.35;779090;71;33104;-83
2021/11/08 16:31:16;;;;;;;17.77;13.53;;;;;;;17.72;54.96;94474.60;829319;71;32013;-87
2021/11/08 16:46:11;;;;;;;19.23;14.53;;;;;;;17.48;55.86;94497.93;834936;71;30357;-85
2021/11/08 17:01:15;;;;;;;23.65;15.32;;;;;;;17.22;56.89;94527.64;827626;71;32822;-84
2021/11/08 17:16:17;;;;;;;20.92;16.45;;;;;;;16.88;57.84;94561.13;835380;71;32731;-83
2021/11/08 17:46:09;;;;;;;21.60;16.85;;;;;;;16.23;59.91;94580.72;830913;70;29655;-84
2021/11/08 18:01:13;;;;;;;19.70;16.97;;;;;;;15.90;60.94;94587.77;830370;70;32038;-83
2021/11/08 18:16:09;;;;;;;21.42;16.10;;;;;;;15.62;62.00;94598.73;788830;74;29783;-79
2021/11/08 18:31:27;;;;;;;21.40;16.12;;;;;;;15.11;62.64;94568.70;836171;70;32745;-80
2021/11/08 18:46:31;;;;;;;19.57;15.40;;;;;;;15.25;63.21;94616.08;825684;71;32868;-84
2021/11/08 19:16:32;;;;;;;19.40;16.30;;;;;;;15.01;64.33;94631.91;807830;73;32855;-88
2021/11/08 19:31:16;;;;;;;20.37;16.70;;;;;;;14.94;64.55;94646.92;795299;72;32819;-86
2021/11/08 19:46:30;;;;;;;22.05;17.92;;;;;;;14.92;65.37;94646.45;834756;71;32952;-84
2021/11/08 20:01:18;;;;;;;22.25;16.32;;;;;;;14.90;65.27;94647.30;833428;71;32041;-88
2021/11/08 20:16:21;;;;;;;21.30;16.35;;;;;;;14.88;65.61;94645.52;821017;70;32839;-89
2021/11/08 21:16:15;;;;;;;23.32;17.87;;;;;;;14.65;66.62;94646.73;794798;73;32918;-89
2021/11/08 21:46:19;;;;;;;20.90;14.75;;;;;;;14.36;66.90;94706.91;802367;74;31857;-90
2021/11/08 22:01:16;;;;;;;18.55;14.05;;;;;;;14.08;67.46;94702.38;801946;74;31964;-87
2021/11/08 22:16:08;;;;;;;13.75;12.20;;;;;;;13.75;67.98;94730.92;829216;71;30194;-91
2021/11/08 22:31:08;;;;;;;16.95;12.10;;;;;;;13.39;68.70;94721.98;836094;70;28688;-82
2021/11/08 22:46:13;;;;;;;15.53;12.18;;;;;;;13.21;69.31;94746.08;830529;71;30980;-87
2021/11/08 23:01:18;;;;;;;15.80;12.85;;;;;;;13.11;69.98;94757.39;794530;74;31905;-89
2021/11/08 23:16:18;;;;;;;13.78;11.75;;;;;;;13.05;70.33;94738.27;794178;74;32059;-89
2021/11/08 23:31:09;;;;;;;15.03;11.70;;;;;;;13.05;70.49;94719.06;824792;71;28774;-89
2021/11/08 23:46:10;;;;;;;15.43;12.30;;;;;;;13.05;70.72;94700.62;829876;71;28617;-90
